createdAt,value
2019-05-17T00:00:07.392Z,94.20
2019-05-17T00:01:07.696Z,93.68
2019-05-17T00:02:06.918Z,93.79
2019-05-17T00:03:07.645Z,93.58
2019-05-17T00:04:07.325Z,93.48
2019-05-17T00:05:08.007Z,93.99
2019-05-17T00:06:07.685Z,93.48
2019-05-17T00:07:07.352Z,93.27
2019-05-17T00:08:07.914Z,93.37
2019-05-17T00:09:08.712Z,92.24
2019-05-17T00:10:07.939Z,92.65
2019-05-17T00:11:08.179Z,92.86
2019-05-17T00:12:08.421Z,92.86
2019-05-17T00:13:14.079Z,92.86
2019-05-17T00:14:10.855Z,93.68
2019-05-17T00:15:09.046Z,93.37
2019-05-17T00:16:10.157Z,93.58
2019-05-17T00:17:09.388Z,93.73
2019-05-17T00:18:09.501Z,93.83
2019-05-17T00:19:09.617Z,93.52
2019-05-17T00:20:09.749Z,93.88
2019-05-17T00:21:09.980Z,93.37
2019-05-17T00:22:10.142Z,93.79
2019-05-17T00:23:46.918Z,93.58
2019-05-17T00:24:10.491Z,93.48
2019-05-17T00:25:10.742Z,92.76
2019-05-17T00:26:10.957Z,92.55
2019-05-17T00:27:11.707Z,93.93
2019-05-17T00:28:11.436Z,92.96
2019-05-17T00:29:12.180Z,93.68
2019-05-17T00:30:11.765Z,92.65
2019-05-17T00:31:11.925Z,93.16
2019-05-17T00:32:12.098Z,93.58
2019-05-17T00:33:12.244Z,92.55
2019-05-17T00:34:12.363Z,92.44
2019-05-17T00:35:12.505Z,92.14
2019-05-17T00:36:12.628Z,92.24
2019-05-17T00:37:12.824Z,92.55
2019-05-17T00:38:13.698Z,92.34
2019-05-17T00:39:13.199Z,92.14
2019-05-17T00:40:16.394Z,92.24
2019-05-17T00:41:13.475Z,92.24
2019-05-17T00:42:13.640Z,92.55
2019-05-17T00:43:13.823Z,92.34
2019-05-17T00:44:13.981Z,92.03
2019-05-17T00:45:14.125Z,92.65
2019-05-17T00:46:14.272Z,92.14
2019-05-17T00:47:14.425Z,92.03
2019-05-17T00:48:16.931Z,92.44
2019-05-17T00:49:16.904Z,92.86
2019-05-17T00:50:17.014Z,92.76
2019-05-17T00:51:16.710Z,92.76
2019-05-17T00:52:16.672Z,92.96
2019-05-17T00:53:16.707Z,93.06
2019-05-17T00:54:17.508Z,92.76
2019-05-17T00:55:51.134Z,92.65
2019-05-17T00:56:17.186Z,92.96
2019-05-17T00:57:17.228Z,92.55
2019-05-17T00:58:17.201Z,92.96
2019-05-17T00:59:17.651Z,92.76
2019-05-17T01:00:17.185Z,92.55
2019-05-17T01:01:18.727Z,92.86
2019-05-17T01:02:17.720Z,92.76
2019-05-17T01:03:17.253Z,92.86
2019-05-17T01:04:17.514Z,92.86
2019-05-17T01:05:17.545Z,92.65
2019-05-17T01:06:17.684Z,92.24
2019-05-17T01:07:17.942Z,92.34
2019-05-17T01:08:18.231Z,92.65
2019-05-17T01:09:18.130Z,92.76
2019-05-17T01:10:18.730Z,92.34
2019-05-17T01:11:18.484Z,92.86
2019-05-17T01:12:18.638Z,92.55
2019-05-17T01:13:18.765Z,93.68
2019-05-17T01:14:18.931Z,92.86
2019-05-17T01:15:19.063Z,92.86
2019-05-17T01:16:19.213Z,93.06
2019-05-17T01:17:19.442Z,92.76
2019-05-17T01:18:19.555Z,93.79
2019-05-17T01:19:19.700Z,93.06
2019-05-17T01:20:19.822Z,93.58
2019-05-17T01:21:20.053Z,94.24
2019-05-17T01:22:21.228Z,93.68
2019-05-17T01:23:21.214Z,93.31
2019-05-17T01:24:20.586Z,93.73
2019-05-17T01:25:56.720Z,93.62
2019-05-17T01:26:20.881Z,93.41
2019-05-17T01:27:21.019Z,92.76
2019-05-17T01:28:21.171Z,92.59
2019-05-17T01:29:21.311Z,93.37
2019-05-17T01:30:21.467Z,93.27
2019-05-17T01:31:21.622Z,92.65
2019-05-17T01:32:21.755Z,92.44
2019-05-17T01:33:21.909Z,92.65
2019-05-17T01:34:22.045Z,92.76
2019-05-17T01:35:22.270Z,92.34
2019-05-17T01:36:23.249Z,92.86
2019-05-17T01:37:22.635Z,92.14
2019-05-17T01:38:22.772Z,92.86
2019-05-17T01:39:23.925Z,92.69
2019-05-17T01:40:23.158Z,92.38
2019-05-17T01:41:23.318Z,92.90
2019-05-17T01:42:23.474Z,92.90
2019-05-17T01:43:23.621Z,92.14
2019-05-17T01:44:23.766Z,92.59
2019-05-17T01:45:23.923Z,92.14
2019-05-17T01:46:26.381Z,92.38
2019-05-17T01:47:24.262Z,92.76
2019-05-17T01:48:24.386Z,92.29
2019-05-17T01:49:26.942Z,92.86
2019-05-17T01:50:26.590Z,92.86
2019-05-17T01:51:26.317Z,92.44
2019-05-17T01:52:27.321Z,92.44
2019-05-17T01:53:27.010Z,92.03
2019-05-17T01:54:26.945Z,92.34
2019-05-17T01:55:26.727Z,92.59
2019-05-17T01:56:59.345Z,92.69
2019-05-17T01:57:27.401Z,92.90
2019-05-17T01:58:27.804Z,92.69
2019-05-17T01:59:27.291Z,93.77
2019-05-17T02:00:27.283Z,93.73
2019-05-17T02:01:27.566Z,93.41
2019-05-17T02:02:28.299Z,93.11
2019-05-17T02:03:27.256Z,93.01
2019-05-17T02:04:27.391Z,93.01
2019-05-17T02:05:27.551Z,92.49
2019-05-17T02:06:27.670Z,92.90
2019-05-17T02:07:27.917Z,92.80
2019-05-17T02:08:28.022Z,92.44
2019-05-17T02:09:37.403Z,92.69
2019-05-17T02:10:30.423Z,92.69
2019-05-17T02:11:29.621Z,92.80
2019-05-17T02:12:28.839Z,92.38
2019-05-17T02:13:28.953Z,93.41
2019-05-17T02:14:29.777Z,93.73
2019-05-17T02:15:29.253Z,93.21
2019-05-17T02:16:29.485Z,93.41
2019-05-17T02:17:29.597Z,93.73
2019-05-17T02:18:29.816Z,92.90
2019-05-17T02:19:30.062Z,92.29
2019-05-17T02:20:30.329Z,92.80
2019-05-17T02:21:30.442Z,93.62
2019-05-17T02:22:30.556Z,93.73
2019-05-17T02:23:30.786Z,92.90
2019-05-17T02:24:31.000Z,92.59
2019-05-17T02:25:31.258Z,92.80
2019-05-17T02:27:04.261Z,93.83
2019-05-17T02:27:38.277Z,92.80
2019-05-17T02:28:33.771Z,93.01
2019-05-17T02:29:32.208Z,92.80
2019-05-17T02:30:33.900Z,93.62
2019-05-17T02:31:33.346Z,93.83
2019-05-17T02:32:33.632Z,93.31
2019-05-17T02:33:33.689Z,93.79
2019-05-17T02:34:33.684Z,92.86
2019-05-17T02:35:34.147Z,92.76
2019-05-17T02:36:33.456Z,92.55
2019-05-17T02:37:34.408Z,92.69
2019-05-17T02:38:34.326Z,93.11
2019-05-17T02:39:51.917Z,93.01
2019-05-17T02:40:35.069Z,93.11
2019-05-17T02:41:34.325Z,92.59
2019-05-17T02:42:34.449Z,92.80
2019-05-17T02:43:34.569Z,92.80
2019-05-17T02:44:35.333Z,92.59
2019-05-17T02:45:35.318Z,93.01
2019-05-17T02:46:35.082Z,92.90
2019-05-17T02:47:35.251Z,92.80
2019-05-17T02:48:35.400Z,93.21
2019-05-17T02:49:35.635Z,93.73
2019-05-17T02:50:35.792Z,93.31
2019-05-17T02:51:35.968Z,94.13
2019-05-17T02:52:36.118Z,93.52
2019-05-17T02:53:36.245Z,93.93
2019-05-17T02:54:36.367Z,94.85
2019-05-17T02:55:36.497Z,93.83
2019-05-17T02:56:36.631Z,94.55
2019-05-17T02:57:37.747Z,94.13
2019-05-17T02:59:13.378Z,94.51
2019-05-17T02:59:37.834Z,94.24
2019-05-17T03:00:37.835Z,94.34
2019-05-17T03:01:37.477Z,93.31
2019-05-17T03:02:37.586Z,93.68
2019-05-17T03:03:37.857Z,93.58
2019-05-17T03:04:38.833Z,93.83
2019-05-17T03:05:38.191Z,93.93
2019-05-17T03:06:38.321Z,93.83
2019-05-17T03:07:38.465Z,93.62
2019-05-17T03:08:38.855Z,93.83
2019-05-17T03:09:38.721Z,93.93
2019-05-17T03:10:38.853Z,94.03
2019-05-17T03:11:42.708Z,93.52
2019-05-17T03:12:39.163Z,93.62
2019-05-17T03:13:39.363Z,93.93
2019-05-17T03:14:39.480Z,94.45
2019-05-17T03:15:43.101Z,94.76
2019-05-17T03:16:42.763Z,94.85
2019-05-17T03:17:43.396Z,94.55
2019-05-17T03:18:43.878Z,94.55
2019-05-17T03:19:43.636Z,94.45
2019-05-17T03:20:43.143Z,93.73
2019-05-17T03:21:42.903Z,94.03
2019-05-17T03:22:44.227Z,93.48
2019-05-17T03:23:43.613Z,93.52
2019-05-17T03:24:43.902Z,93.88
2019-05-17T03:25:43.965Z,93.27
2019-05-17T03:26:43.186Z,93.68
2019-05-17T03:27:43.864Z,93.68
2019-05-17T03:29:15.530Z,93.68
2019-05-17T03:29:42.609Z,93.68
2019-05-17T03:30:46.650Z,93.58
2019-05-17T03:31:51.164Z,93.48
2019-05-17T03:32:47.763Z,92.90
2019-05-17T03:33:46.020Z,93.21
2019-05-17T03:34:45.162Z,93.37
2019-05-17T03:35:46.174Z,93.99
2019-05-17T03:36:46.598Z,93.48
2019-05-17T03:37:44.788Z,93.58
2019-05-17T03:38:44.040Z,93.58
2019-05-17T03:39:44.172Z,92.86
2019-05-17T03:41:46.511Z,92.86
2019-05-17T03:42:44.698Z,92.76
2019-05-17T03:43:44.824Z,92.96
2019-05-17T03:44:44.975Z,92.86
2019-05-17T03:45:45.086Z,92.34
2019-05-17T03:46:45.873Z,93.52
2019-05-17T03:47:45.342Z,93.79
2019-05-17T03:48:45.502Z,92.86
2019-05-17T03:49:45.633Z,93.52
2019-05-17T03:50:46.364Z,94.03
2019-05-17T03:51:45.969Z,93.83
2019-05-17T03:52:46.869Z,93.16
2019-05-17T03:53:46.263Z,92.86
2019-05-17T03:54:46.395Z,92.76
2019-05-17T03:55:47.373Z,92.90
2019-05-17T03:56:46.748Z,92.80
2019-05-17T03:57:47.378Z,93.41
2019-05-17T03:58:47.022Z,93.83
2019-05-17T04:00:23.212Z,93.62
2019-05-17T04:00:47.372Z,94.09
2019-05-17T04:01:48.536Z,93.73
2019-05-17T04:02:47.769Z,93.88
2019-05-17T04:03:47.919Z,93.58
2019-05-17T04:04:48.040Z,93.06
2019-05-17T04:05:48.900Z,92.76
2019-05-17T04:06:48.375Z,92.24
2019-05-17T04:07:48.634Z,93.01
2019-05-17T04:08:48.792Z,93.68
2019-05-17T04:09:52.958Z,93.16
2019-05-17T04:10:49.137Z,93.16
2019-05-17T04:11:49.291Z,93.48
2019-05-17T04:12:49.418Z,93.88
2019-05-17T04:13:49.584Z,93.58
2019-05-17T04:14:53.059Z,93.16
2019-05-17T04:15:53.045Z,92.82
2019-05-17T04:16:53.361Z,92.76
2019-05-17T04:17:52.870Z,92.76
2019-05-17T04:18:53.467Z,92.82
2019-05-17T04:19:53.336Z,92.65
2019-05-17T04:20:52.785Z,93.16
2019-05-17T04:21:53.717Z,93.68
2019-05-17T04:22:52.773Z,93.06
2019-05-17T04:23:53.898Z,92.34
2019-05-17T04:24:52.678Z,92.50
2019-05-17T04:25:53.010Z,92.24
2019-05-17T04:26:52.979Z,92.86
2019-05-17T04:27:53.670Z,92.86
2019-05-17T04:28:53.902Z,92.65
2019-05-17T04:29:53.356Z,92.03
2019-05-17T04:31:26.081Z,92.76
2019-05-17T04:31:54.523Z,92.14
2019-05-17T04:32:53.931Z,92.44
2019-05-17T04:33:53.736Z,92.34
2019-05-17T04:34:54.229Z,92.24
2019-05-17T04:35:54.430Z,92.34
2019-05-17T04:36:53.687Z,92.44
2019-05-17T04:37:53.832Z,92.76
2019-05-17T04:38:53.962Z,92.76
2019-05-17T04:39:54.076Z,92.24
2019-05-17T04:40:55.194Z,92.24
2019-05-17T04:41:55.198Z,92.03
2019-05-17T04:42:54.604Z,92.44
2019-05-17T04:43:54.744Z,92.34
2019-05-17T04:44:54.876Z,92.24
2019-05-17T04:45:54.997Z,92.34
2019-05-17T04:46:55.441Z,92.34
2019-05-17T04:47:55.354Z,92.34
2019-05-17T04:48:55.524Z,92.40
2019-05-17T04:49:55.632Z,91.78
2019-05-17T04:50:55.812Z,91.89
2019-05-17T04:51:55.956Z,92.34
2019-05-17T04:52:56.078Z,91.38
2019-05-17T04:53:56.452Z,91.38
2019-05-17T04:54:56.451Z,91.58
2019-05-17T04:55:56.559Z,91.89
2019-05-17T04:56:56.806Z,91.58
2019-05-17T04:57:56.958Z,92.10
2019-05-17T04:58:57.930Z,91.72
2019-05-17T04:59:57.250Z,91.58
2019-05-17T05:00:57.383Z,91.47
2019-05-17T05:02:33.052Z,91.58
2019-05-17T05:02:57.694Z,91.27
2019-05-17T05:03:58.450Z,91.58
2019-05-17T05:04:58.169Z,92.24
2019-05-17T05:05:58.306Z,92.30
2019-05-17T05:06:58.522Z,91.99
2019-05-17T05:07:58.773Z,92.40
2019-05-17T05:08:58.902Z,91.68
2019-05-17T05:10:02.649Z,91.89
2019-05-17T05:10:59.302Z,91.38
2019-05-17T05:12:05.034Z,91.89
2019-05-17T05:13:03.048Z,92.20
2019-05-17T05:14:02.727Z,91.38
2019-05-17T05:15:03.483Z,91.17
2019-05-17T05:16:03.077Z,91.47
2019-05-17T05:17:02.565Z,91.27
2019-05-17T05:18:02.402Z,91.06
2019-05-17T05:19:02.920Z,91.06
2019-05-17T05:20:02.806Z,91.47
2019-05-17T05:21:03.819Z,90.96
2019-05-17T05:22:04.313Z,90.55
2019-05-17T05:23:02.838Z,91.27
2019-05-17T05:24:02.754Z,91.47
2019-05-17T05:25:02.471Z,90.55
2019-05-17T05:26:03.126Z,91.06
2019-05-17T05:27:03.184Z,90.86
2019-05-17T05:28:02.567Z,91.17
2019-05-17T05:29:03.606Z,90.81
2019-05-17T05:30:03.191Z,91.27
2019-05-17T05:31:03.850Z,91.06
2019-05-17T05:32:38.398Z,90.96
2019-05-17T05:33:03.180Z,91.06
2019-05-17T05:34:03.401Z,90.86
2019-05-17T05:35:03.533Z,91.85
2019-05-17T05:36:03.651Z,91.23
2019-05-17T05:37:03.782Z,91.02
2019-05-17T05:38:04.966Z,91.17
2019-05-17T05:39:04.155Z,90.81
2019-05-17T05:40:04.412Z,90.61
2019-05-17T05:41:04.658Z,90.61
2019-05-17T05:42:10.240Z,90.72
2019-05-17T05:43:06.970Z,91.13
2019-05-17T05:44:05.171Z,90.81
2019-05-17T05:45:05.317Z,91.64
2019-05-17T05:46:05.417Z,90.92
2019-05-17T05:47:05.532Z,90.51
2019-05-17T05:48:05.654Z,90.61
2019-05-17T05:49:05.774Z,91.27
2019-05-17T05:50:07.041Z,90.86
2019-05-17T05:51:06.194Z,90.81
2019-05-17T05:52:06.258Z,91.44
2019-05-17T05:53:06.979Z,91.64
2019-05-17T05:54:06.585Z,91.02
2019-05-17T05:55:06.733Z,90.81
2019-05-17T05:56:06.861Z,90.72
2019-05-17T05:57:07.971Z,90.61
2019-05-17T05:58:07.180Z,91.13
2019-05-17T05:59:07.423Z,91.13
2019-05-17T06:00:08.005Z,90.51
2019-05-17T06:01:07.845Z,90.41
2019-05-17T06:02:08.070Z,90.72
2019-05-17T06:03:41.725Z,91.02
2019-05-17T06:04:08.403Z,91.02
2019-05-17T06:05:09.496Z,91.02
2019-05-17T06:06:08.842Z,90.20
2019-05-17T06:07:09.051Z,90.41
2019-05-17T06:08:09.280Z,90.92
2019-05-17T06:09:11.832Z,91.23
2019-05-17T06:10:09.650Z,90.72
2019-05-17T06:11:12.106Z,91.13
2019-05-17T06:12:23.359Z,90.72
2019-05-17T06:13:13.071Z,90.72
2019-05-17T06:14:12.205Z,91.02
2019-05-17T06:15:12.569Z,91.02
2019-05-17T06:16:12.501Z,90.20
2019-05-17T06:17:12.591Z,91.02
2019-05-17T06:18:12.551Z,90.30
2019-05-17T06:19:11.735Z,90.72
2019-05-17T06:20:12.532Z,91.23
2019-05-17T06:21:12.240Z,90.81
2019-05-17T06:22:12.956Z,90.09
2019-05-17T06:23:12.607Z,90.16
2019-05-17T06:24:13.393Z,89.95
2019-05-17T06:25:14.949Z,90.67
2019-05-17T06:26:13.814Z,90.57
2019-05-17T06:27:13.053Z,89.44
2019-05-17T06:28:13.173Z,90.57
2019-05-17T06:29:13.302Z,90.57
2019-05-17T06:30:14.516Z,90.47
2019-05-17T06:31:15.169Z,90.36
2019-05-17T06:32:14.907Z,89.81
2019-05-17T06:33:26.941Z,90.01
2019-05-17T06:34:15.311Z,89.70
2019-05-17T06:35:14.522Z,89.50
2019-05-17T06:36:14.656Z,89.40
2019-05-17T06:37:16.546Z,90.42
2019-05-17T06:38:15.985Z,89.15
2019-05-17T06:39:15.092Z,89.04
2019-05-17T06:40:15.216Z,89.04
2019-05-17T06:41:15.364Z,89.76
2019-05-17T06:42:15.533Z,89.25
2019-05-17T06:43:15.672Z,89.25
2019-05-17T06:44:15.815Z,88.12
2019-05-17T06:45:15.958Z,88.64
2019-05-17T06:46:16.108Z,88.64
2019-05-17T06:47:16.289Z,88.02
2019-05-17T06:48:16.420Z,88.43
2019-05-17T06:49:16.547Z,88.74
2019-05-17T06:50:16.677Z,87.92
2019-05-17T06:51:17.504Z,88.33
2019-05-17T06:52:17.022Z,87.40
2019-05-17T06:53:18.019Z,88.17
2019-05-17T06:54:17.385Z,88.57
2019-05-17T06:55:17.523Z,88.68
2019-05-17T06:56:17.669Z,87.75
2019-05-17T06:57:18.530Z,88.57
2019-05-17T06:58:18.041Z,88.78
2019-05-17T06:59:18.187Z,89.09
2019-05-17T07:00:20.743Z,88.37
2019-05-17T07:01:20.568Z,88.43
2019-05-17T07:02:19.844Z,88.47
2019-05-17T07:03:19.976Z,88.74
2019-05-17T07:04:19.377Z,88.37
2019-05-17T07:05:20.333Z,88.64
2019-05-17T07:06:21.514Z,87.71
2019-05-17T07:07:20.741Z,88.33
2019-05-17T07:08:20.845Z,88.84
2019-05-17T07:09:19.996Z,88.53
2019-05-17T07:10:39.861Z,88.23
2019-05-17T07:11:21.046Z,87.82
2019-05-17T07:12:21.404Z,86.89
2019-05-17T07:13:20.644Z,87.61
2019-05-17T07:14:20.781Z,87.92
2019-05-17T07:15:20.919Z,88.23
2019-05-17T07:16:22.027Z,87.71
2019-05-17T07:17:21.368Z,88.02
2019-05-17T07:18:21.637Z,88.33
2019-05-17T07:19:21.754Z,89.15
2019-05-17T07:20:21.886Z,87.40
2019-05-17T07:21:22.011Z,87.71
2019-05-17T07:22:22.141Z,87.30
2019-05-17T07:23:22.304Z,88.29
2019-05-17T07:24:22.446Z,88.18
2019-05-17T07:25:23.520Z,86.95
2019-05-17T07:26:22.726Z,88.18
2019-05-17T07:27:22.981Z,87.46
2019-05-17T07:28:23.119Z,87.37
2019-05-17T07:29:23.229Z,86.13
2019-05-17T07:30:23.474Z,85.93
2019-05-17T07:31:23.597Z,85.93
2019-05-17T07:32:23.709Z,86.03
2019-05-17T07:33:23.972Z,86.71
2019-05-17T07:34:24.099Z,86.95
2019-05-17T07:35:24.521Z,85.99
2019-05-17T07:36:59.781Z,85.93
2019-05-17T07:37:24.613Z,86.91
2019-05-17T07:38:24.857Z,87.22
2019-05-17T07:39:24.990Z,86.81
2019-05-17T07:40:25.138Z,85.27
2019-05-17T07:41:25.264Z,85.03
2019-05-17T07:42:25.504Z,84.61
2019-05-17T07:43:25.617Z,84.34
2019-05-17T07:44:25.861Z,84.76
2019-05-17T07:45:26.024Z,84.14
2019-05-17T07:46:29.332Z,83.49
2019-05-17T07:47:26.272Z,84.92
2019-05-17T07:48:26.567Z,84.92
2019-05-17T07:49:26.609Z,84.61
2019-05-17T07:50:26.754Z,82.46
2019-05-17T07:51:26.918Z,80.51
2019-05-17T07:52:27.075Z,83.18
2019-05-17T07:53:27.212Z,83.80
2019-05-17T07:54:27.462Z,83.96
2019-05-17T07:55:30.274Z,83.86
2019-05-17T07:56:30.367Z,84.06
2019-05-17T07:57:29.985Z,83.04
2019-05-17T07:58:30.017Z,81.67
2019-05-17T07:59:29.421Z,80.37
2019-05-17T08:00:30.529Z,82.08
2019-05-17T08:01:29.870Z,80.03
2019-05-17T08:02:30.636Z,79.72
2019-05-17T08:03:30.296Z,78.70
2019-05-17T08:04:29.969Z,79.72
2019-05-17T08:05:30.665Z,80.03
2019-05-17T08:06:30.557Z,80.23
2019-05-17T08:08:03.520Z,79.96
2019-05-17T08:08:31.364Z,79.14
2019-05-17T08:09:31.487Z,79.66
2019-05-17T08:10:30.725Z,78.53
2019-05-17T08:11:30.842Z,79.35
2019-05-17T08:12:31.006Z,79.86
2019-05-17T08:13:33.646Z,79.75
2019-05-17T08:14:33.574Z,80.58
2019-05-17T08:15:32.606Z,79.11
2019-05-17T08:16:31.720Z,79.00
2019-05-17T08:17:31.858Z,79.72
2019-05-17T08:18:31.984Z,80.54
2019-05-17T08:19:32.123Z,79.31
2019-05-17T08:20:32.267Z,79.75
2019-05-17T08:21:32.452Z,80.13
2019-05-17T08:22:32.590Z,79.89
2019-05-17T08:23:32.765Z,78.08
2019-05-17T08:24:32.905Z,78.94
2019-05-17T08:25:33.076Z,79.11
2019-05-17T08:26:33.214Z,79.66
2019-05-17T08:27:33.369Z,78.83
2019-05-17T08:28:33.515Z,79.35
2019-05-17T08:29:33.674Z,80.07
2019-05-17T08:30:33.807Z,80.37
2019-05-17T08:31:33.967Z,80.27
2019-05-17T08:32:34.131Z,81.60
2019-05-17T08:33:35.108Z,79.62
2019-05-17T08:34:34.472Z,80.37
2019-05-17T08:35:34.603Z,79.55
2019-05-17T08:36:34.750Z,79.86
2019-05-17T08:38:10.377Z,79.75
2019-05-17T08:38:35.142Z,78.94
2019-05-17T08:39:35.315Z,79.86
2019-05-17T08:40:35.450Z,80.58
2019-05-17T08:41:35.602Z,80.27
2019-05-17T08:42:35.741Z,78.12
2019-05-17T08:43:42.707Z,79.14
2019-05-17T08:44:39.361Z,80.17
2019-05-17T08:45:36.296Z,79.96
2019-05-17T08:46:36.425Z,78.80
2019-05-17T08:47:36.592Z,78.59
2019-05-17T08:48:36.747Z,78.49
2019-05-17T08:49:36.905Z,78.32
2019-05-17T08:50:55.965Z,78.28
2019-05-17T08:51:39.497Z,80.07
2019-05-17T08:52:40.005Z,78.63
2019-05-17T08:53:39.747Z,77.98
2019-05-17T08:54:42.592Z,78.59
2019-05-17T08:55:40.902Z,77.98
2019-05-17T08:56:40.218Z,77.77
2019-05-17T08:57:39.945Z,79.11
2019-05-17T08:58:40.387Z,77.98
2019-05-17T08:59:40.397Z,77.87
2019-05-17T09:00:40.439Z,79.00
2019-05-17T09:01:41.816Z,79.48
2019-05-17T09:02:41.271Z,79.68
2019-05-17T09:03:41.197Z,78.35
2019-05-17T09:04:40.489Z,78.45
2019-05-17T09:05:41.833Z,78.05
2019-05-17T09:06:41.111Z,78.05
2019-05-17T09:07:40.446Z,78.31
2019-05-17T09:08:42.118Z,79.79
2019-05-17T09:09:40.345Z,79.96
2019-05-17T09:10:41.027Z,77.84
2019-05-17T09:11:41.636Z,77.73
2019-05-17T09:12:41.269Z,77.64
2019-05-17T09:13:54.380Z,78.35
2019-05-17T09:14:43.261Z,77.23
2019-05-17T09:15:41.510Z,78.31
2019-05-17T09:16:41.648Z,77.80
2019-05-17T09:17:41.769Z,76.78
2019-05-17T09:18:42.611Z,76.37
2019-05-17T09:19:42.216Z,76.27
2019-05-17T09:20:43.123Z,77.09
2019-05-17T09:21:42.486Z,76.37
2019-05-17T09:22:43.623Z,76.84
2019-05-17T09:23:42.759Z,77.80
2019-05-17T09:24:43.133Z,76.64
2019-05-17T09:25:43.144Z,74.80
2019-05-17T09:26:43.296Z,75.42
2019-05-17T09:27:43.413Z,75.31
2019-05-17T09:28:43.543Z,75.82
2019-05-17T09:29:43.703Z,76.91
2019-05-17T09:30:43.841Z,76.09
2019-05-17T09:31:43.971Z,76.26
2019-05-17T09:32:44.136Z,75.04
2019-05-17T09:33:44.266Z,75.14
2019-05-17T09:34:44.414Z,76.06
2019-05-17T09:35:45.520Z,76.23
2019-05-17T09:36:44.753Z,76.03
2019-05-17T09:37:44.882Z,76.06
2019-05-17T09:38:46.020Z,74.11
2019-05-17T09:39:45.227Z,76.12
2019-05-17T09:40:45.460Z,73.50
2019-05-17T09:41:45.692Z,74.11
2019-05-17T09:42:45.946Z,73.54
2019-05-17T09:43:46.187Z,74.76
2019-05-17T09:44:46.440Z,74.66
2019-05-17T09:45:46.571Z,74.97
2019-05-17T09:46:46.710Z,75.89
2019-05-17T09:47:46.935Z,75.89
2019-05-17T09:48:47.250Z,74.73
2019-05-17T09:49:50.146Z,74.63
2019-05-17T09:50:47.584Z,74.32
2019-05-17T09:51:49.678Z,74.43
2019-05-17T09:52:49.496Z,74.90
2019-05-17T09:53:49.584Z,73.64
2019-05-17T09:54:50.360Z,74.87
2019-05-17T09:55:49.762Z,73.50
2019-05-17T09:56:49.774Z,72.89
2019-05-17T09:58:10.705Z,73.71
2019-05-17T09:58:49.637Z,72.38
2019-05-17T09:59:49.624Z,72.92
2019-05-17T10:00:50.210Z,73.03
2019-05-17T10:01:49.543Z,72.82
2019-05-17T10:02:50.925Z,72.92
2019-05-17T10:03:50.822Z,73.77
2019-05-17T10:04:50.820Z,72.92
2019-05-17T10:05:50.617Z,73.57
2019-05-17T10:06:51.330Z,73.77
2019-05-17T10:07:51.316Z,72.96
2019-05-17T10:08:50.399Z,73.47
2019-05-17T10:09:50.524Z,72.86
2019-05-17T10:11:04.860Z,73.06
2019-05-17T10:11:53.617Z,73.61
2019-05-17T10:12:51.083Z,73.91
2019-05-17T10:13:51.206Z,73.91
2019-05-17T10:14:51.356Z,73.47
2019-05-17T10:15:52.119Z,75.10
2019-05-17T10:16:51.602Z,74.56
2019-05-17T10:17:51.727Z,73.54
2019-05-17T10:18:51.856Z,73.03
2019-05-17T10:19:53.025Z,73.57
2019-05-17T10:20:52.131Z,73.74
2019-05-17T10:21:52.263Z,72.34
2019-05-17T10:22:53.131Z,73.23
2019-05-17T10:23:52.606Z,73.13
2019-05-17T10:24:52.727Z,71.70
2019-05-17T10:25:52.846Z,71.91
2019-05-17T10:26:53.118Z,72.58
2019-05-17T10:27:53.291Z,73.19
2019-05-17T10:28:53.448Z,71.87
2019-05-17T10:29:54.148Z,72.07
2019-05-17T10:30:54.647Z,72.07
2019-05-17T10:31:53.927Z,71.87
2019-05-17T10:32:54.655Z,72.48
2019-05-17T10:33:54.292Z,72.96
2019-05-17T10:34:54.434Z,72.17
2019-05-17T10:35:55.131Z,72.14
2019-05-17T10:36:55.142Z,72.45
2019-05-17T10:37:55.654Z,72.14
2019-05-17T10:38:55.160Z,72.34
2019-05-17T10:39:55.317Z,72.55
2019-05-17T10:40:55.472Z,71.22
2019-05-17T10:42:30.638Z,71.73
2019-05-17T10:42:55.705Z,71.09
2019-05-17T10:43:55.954Z,70.51
2019-05-17T10:44:56.692Z,70.10
2019-05-17T10:45:56.317Z,70.17
2019-05-17T10:46:56.458Z,71.02
2019-05-17T10:47:56.603Z,71.43
2019-05-17T10:48:57.655Z,71.09
2019-05-17T10:49:56.903Z,71.12
2019-05-17T10:50:57.041Z,71.73
2019-05-17T10:51:57.187Z,72.14
2019-05-17T10:52:57.351Z,72.75
2019-05-17T10:53:59.810Z,72.96
2019-05-17T10:54:59.926Z,73.47
2019-05-17T10:56:00.425Z,71.94
2019-05-17T10:56:59.723Z,72.58
2019-05-17T10:58:00.455Z,72.69
2019-05-17T10:59:21.152Z,72.89
2019-05-17T10:59:59.570Z,73.19
2019-05-17T11:01:00.858Z,73.36
2019-05-17T11:01:59.829Z,73.36
2019-05-17T11:03:00.576Z,73.30
2019-05-17T11:04:00.387Z,72.99
2019-05-17T11:05:00.773Z,72.58
2019-05-17T11:06:00.720Z,73.27
2019-05-17T11:06:59.960Z,72.14
2019-05-17T11:08:00.079Z,72.34
2019-05-17T11:09:00.331Z,72.86
2019-05-17T11:10:00.819Z,72.86
2019-05-17T11:11:00.634Z,72.65
2019-05-17T11:12:00.770Z,73.94
2019-05-17T11:13:00.889Z,73.40
2019-05-17T11:14:01.042Z,72.89
2019-05-17T11:15:11.140Z,71.67
2019-05-17T11:16:03.410Z,72.08
2019-05-17T11:17:02.167Z,72.58
2019-05-17T11:18:01.787Z,72.38
2019-05-17T11:19:02.070Z,71.63
2019-05-17T11:20:03.178Z,72.45
2019-05-17T11:21:02.429Z,71.53
2019-05-17T11:22:02.540Z,71.94
2019-05-17T11:23:02.674Z,71.63
2019-05-17T11:24:02.852Z,71.97
2019-05-17T11:25:03.055Z,71.77
2019-05-17T11:26:03.111Z,72.58
2019-05-17T11:27:03.261Z,72.86
2019-05-17T11:28:03.381Z,72.34
2019-05-17T11:29:03.533Z,70.41
2019-05-17T11:30:03.649Z,70.82
2019-05-17T11:31:04.675Z,71.94
2019-05-17T11:32:04.007Z,72.72
2019-05-17T11:33:04.251Z,73.33
2019-05-17T11:34:04.392Z,72.28
2019-05-17T11:35:04.511Z,72.28
2019-05-17T11:36:04.618Z,71.87
2019-05-17T11:37:04.753Z,72.17
2019-05-17T11:38:04.866Z,70.65
2019-05-17T11:39:05.002Z,70.75
2019-05-17T11:40:08.048Z,73.54
2019-05-17T11:41:20.599Z,71.60
2019-05-17T11:42:07.485Z,69.67
2019-05-17T11:43:06.680Z,70.95
2019-05-17T11:44:06.667Z,69.70
2019-05-17T11:45:06.190Z,69.49
2019-05-17T11:46:06.322Z,68.68
2019-05-17T11:47:06.529Z,68.68
2019-05-17T11:48:06.675Z,67.53
2019-05-17T11:49:06.798Z,68.65
2019-05-17T11:50:06.972Z,69.57
2019-05-17T11:51:07.135Z,67.53
2019-05-17T11:52:07.279Z,70.10
2019-05-17T11:53:08.412Z,70.01
2019-05-17T11:54:07.642Z,69.32
2019-05-17T11:55:07.775Z,72.34
2019-05-17T11:56:08.255Z,70.55
2019-05-17T11:57:08.133Z,71.73
2019-05-17T11:58:09.170Z,72.31
2019-05-17T11:59:08.480Z,72.92
2019-05-17T12:00:08.626Z,71.87
2019-05-17T12:01:08.806Z,73.26
2019-05-17T12:02:09.997Z,71.53
2019-05-17T12:03:09.106Z,69.37
2019-05-17T12:04:09.251Z,71.30
2019-05-17T12:05:09.390Z,67.74
2019-05-17T12:06:09.525Z,69.40
2019-05-17T12:07:09.693Z,71.12
2019-05-17T12:08:10.670Z,70.21
2019-05-17T12:09:10.020Z,68.11
2019-05-17T12:10:10.180Z,71.09
2019-05-17T12:11:10.286Z,71.09
2019-05-17T12:12:11.175Z,70.99
2019-05-17T12:13:10.649Z,70.58
2019-05-17T12:14:11.182Z,70.79
2019-05-17T12:15:10.911Z,71.40
2019-05-17T12:16:11.027Z,70.45
2019-05-17T12:17:11.177Z,69.64
2019-05-17T12:18:11.294Z,71.16
2019-05-17T12:19:11.447Z,69.43
2019-05-17T12:20:11.580Z,70.86
2019-05-17T12:21:11.811Z,69.43
2019-05-17T12:22:11.988Z,69.64
2019-05-17T12:23:12.142Z,69.97
2019-05-17T12:24:12.283Z,69.67
2019-05-17T12:25:12.418Z,71.12
2019-05-17T12:26:13.182Z,71.09
2019-05-17T12:27:12.796Z,69.26
2019-05-17T12:28:12.970Z,69.46
2019-05-17T12:29:13.121Z,69.46
2019-05-17T12:30:14.186Z,69.67
2019-05-17T12:31:14.180Z,71.30
2019-05-17T12:32:16.772Z,70.48
2019-05-17T12:33:15.204Z,70.79
2019-05-17T12:34:13.926Z,69.46
2019-05-17T12:35:14.693Z,69.67
2019-05-17T12:36:14.242Z,70.07
2019-05-17T12:37:14.374Z,69.90
2019-05-17T12:38:14.567Z,70.72
2019-05-17T12:39:14.702Z,70.82
2019-05-17T12:40:15.861Z,70.92
2019-05-17T12:41:15.097Z,72.11
2019-05-17T12:42:15.259Z,70.96
2019-05-17T12:43:15.438Z,71.19
2019-05-17T12:44:15.573Z,71.91
2019-05-17T12:45:15.696Z,71.40
2019-05-17T12:46:15.822Z,70.99
2019-05-17T12:47:15.955Z,69.46
2019-05-17T12:48:16.100Z,69.74
2019-05-17T12:49:16.243Z,69.94
2019-05-17T12:50:16.381Z,70.21
2019-05-17T12:51:16.520Z,67.88
2019-05-17T12:52:16.656Z,68.38
2019-05-17T12:53:16.802Z,67.47
2019-05-17T12:54:16.961Z,68.28
2019-05-17T12:55:18.688Z,68.18